sensor_id;sensor_type;location;lat;lon;timestamp;temperature;humidity
76838;DHT22;65797;47.352;8.164;2023-06-10T00:00:42;19.20;89.60
76838;DHT22;65797;47.352;8.164;2023-06-10T00:03:08;19.30;78.30
76838;DHT22;65797;47.352;8.164;2023-06-10T00:05:37;19.40;84.70
76838;DHT22;65797;47.352;8.164;2023-06-10T00:08:05;19.40;81.30
76838;DHT22;65797;47.352;8.164;2023-06-10T00:10:38;19.40;90.60
76838;DHT22;65797;47.352;8.164;2023-06-10T00:13:04;19.40;85.60
76838;DHT22;65797;47.352;8.164;2023-06-10T00:15:30;19.40;76.10
76838;DHT22;65797;47.352;8.164;2023-06-10T00:17:56;19.40;75.10
76838;DHT22;65797;47.352;8.164;2023-06-10T00:20:23;19.40;99.90
76838;DHT22;65797;47.352;8.164;2023-06-10T00:22:54;19.40;99.90
76838;DHT22;65797;47.352;8.164;2023-06-10T00:25:20;19.40;95.50
76838;DHT22;65797;47.352;8.164;2023-06-10T00:27:45;19.40;92.40
76838;DHT22;65797;47.352;8.164;2023-06-10T00:30:11;19.30;98.40
76838;DHT22;65797;47.352;8.164;2023-06-10T00:32:37;19.40;99.30
76838;DHT22;65797;47.352;8.164;2023-06-10T00:35:04;19.30;99.90
76838;DHT22;65797;47.352;8.164;2023-06-10T00:37:29;19.20;99.90
76838;DHT22;65797;47.352;8.164;2023-06-10T00:39:55;19.20;99.90
76838;DHT22;65797;47.352;8.164;2023-06-10T00:42:21;19.20;99.90
76838;DHT22;65797;47.352;8.164;2023-06-10T00:44:50;19.20;99.90
76838;DHT22;65797;47.352;8.164;2023-06-10T00:47:16;19.20;99.90
76838;DHT22;65797;47.352;8.164;2023-06-10T00:49:42;19.20;99.90
76838;DHT22;65797;47.352;8.164;2023-06-10T00:52:08;19.20;99.90
76838;DHT22;65797;47.352;8.164;2023-06-10T00:54:36;19.10;99.90
76838;DHT22;65797;47.352;8.164;2023-06-10T00:57:03;19.10;99.90
76838;DHT22;65797;47.352;8.164;2023-06-10T00:59:30;19.00;99.90
76838;DHT22;65797;47.352;8.164;2023-06-10T01:01:56;18.90;99.90
76838;DHT22;65797;47.352;8.164;2023-06-10T01:04:22;18.90;99.90
76838;DHT22;65797;47.352;8.164;2023-06-10T01:14:41;18.80;99.90
76838;DHT22;65797;47.352;8.164;2023-06-10T01:17:11;18.70;99.90
76838;DHT22;65797;47.352;8.164;2023-06-10T01:19:37;18.60;99.90
76838;DHT22;65797;47.352;8.164;2023-06-10T01:22:03;18.50;99.90
76838;DHT22;65797;47.352;8.164;2023-06-10T01:24:30;18.40;99.90
76838;DHT22;65797;47.352;8.164;2023-06-10T01:27:01;18.50;99.90
76838;DHT22;65797;47.352;8.164;2023-06-10T01:29:37;18.50;99.90
76838;DHT22;65797;47.352;8.164;2023-06-10T01:32:12;18.40;99.90
76838;DHT22;65797;47.352;8.164;2023-06-10T01:34:42;18.30;99.90
76838;DHT22;65797;47.352;8.164;2023-06-10T01:37:10;18.30;99.90
76838;DHT22;65797;47.352;8.164;2023-06-10T01:39:38;18.20;99.90
76838;DHT22;65797;47.352;8.164;2023-06-10T01:42:05;18.20;99.90
76838;DHT22;65797;47.352;8.164;2023-06-10T01:44:32;18.10;99.90
76838;DHT22;65797;47.352;8.164;2023-06-10T01:46:58;18.00;99.90
76838;DHT22;65797;47.352;8.164;2023-06-10T01:49:23;18.00;99.90
76838;DHT22;65797;47.352;8.164;2023-06-10T01:51:50;18.00;99.90
76838;DHT22;65797;47.352;8.164;2023-06-10T01:54:15;17.90;99.90
76838;DHT22;65797;47.352;8.164;2023-06-10T01:56:41;17.80;99.90
76838;DHT22;65797;47.352;8.164;2023-06-10T01:59:07;17.80;99.90
76838;DHT22;65797;47.352;8.164;2023-06-10T02:01:33;17.70;99.90
76838;DHT22;65797;47.352;8.164;2023-06-10T02:03:59;17.70;99.90
76838;DHT22;65797;47.352;8.164;2023-06-10T02:06:25;17.70;99.90
76838;DHT22;65797;47.352;8.164;2023-06-10T02:08:50;17.70;99.90
76838;DHT22;65797;47.352;8.164;2023-06-10T02:11:16;17.60;99.90
76838;DHT22;65797;47.352;8.164;2023-06-10T02:13:42;17.50;99.90
76838;DHT22;65797;47.352;8.164;2023-06-10T02:16:08;17.60;99.90
76838;DHT22;65797;47.352;8.164;2023-06-10T02:18:38;17.50;99.90
76838;DHT22;65797;47.352;8.164;2023-06-10T02:21:06;17.50;99.90
76838;DHT22;65797;47.352;8.164;2023-06-10T02:23:32;17.50;99.90
76838;DHT22;65797;47.352;8.164;2023-06-10T02:25:58;17.40;99.90
76838;DHT22;65797;47.352;8.164;2023-06-10T02:28:24;17.40;99.90
76838;DHT22;65797;47.352;8.164;2023-06-10T02:30:51;17.40;99.90
76838;DHT22;65797;47.352;8.164;2023-06-10T02:33:20;17.30;99.90
76838;DHT22;65797;47.352;8.164;2023-06-10T02:35:47;17.30;99.90
76838;DHT22;65797;47.352;8.164;2023-06-10T02:38:13;17.20;99.90
76838;DHT22;65797;47.352;8.164;2023-06-10T02:40:38;17.10;99.90
76838;DHT22;65797;47.352;8.164;2023-06-10T02:43:04;17.10;99.90
76838;DHT22;65797;47.352;8.164;2023-06-10T02:45:30;17.10;99.90
76838;DHT22;65797;47.352;8.164;2023-06-10T02:47:56;17.10;99.90
76838;DHT22;65797;47.352;8.164;2023-06-10T02:50:21;17.10;99.90
76838;DHT22;65797;47.352;8.164;2023-06-10T02:52:49;17.10;99.90
76838;DHT22;65797;47.352;8.164;2023-06-10T02:55:15;17.10;99.90
76838;DHT22;65797;47.352;8.164;2023-06-10T02:57:41;17.10;99.90
76838;DHT22;65797;47.352;8.164;2023-06-10T03:00:07;17.00;99.90
76838;DHT22;65797;47.352;8.164;2023-06-10T03:02:37;17.00;99.90
76838;DHT22;65797;47.352;8.164;2023-06-10T03:05:05;17.00;99.90
76838;DHT22;65797;47.352;8.164;2023-06-10T03:07:30;17.00;99.90
76838;DHT22;65797;47.352;8.164;2023-06-10T03:09:57;16.90;1.00
76838;DHT22;65797;47.352;8.164;2023-06-10T03:12:23;16.90;1.00
76838;DHT22;65797;47.352;8.164;2023-06-10T03:14:49;16.90;1.00
76838;DHT22;65797;47.352;8.164;2023-06-10T03:17:14;16.90;1.00
76838;DHT22;65797;47.352;8.164;2023-06-10T03:19:40;16.90;1.00
76838;DHT22;65797;47.352;8.164;2023-06-10T03:22:10;16.90;1.00
76838;DHT22;65797;47.352;8.164;2023-06-10T03:24:36;16.90;1.00
76838;DHT22;65797;47.352;8.164;2023-06-10T03:27:09;16.80;1.00
76838;DHT22;65797;47.352;8.164;2023-06-10T03:29:35;16.80;1.00
76838;DHT22;65797;47.352;8.164;2023-06-10T03:32:01;16.80;1.00
76838;DHT22;65797;47.352;8.164;2023-06-10T03:34:27;16.80;1.00
76838;DHT22;65797;47.352;8.164;2023-06-10T03:36:53;16.80;1.00
76838;DHT22;65797;47.352;8.164;2023-06-10T03:39:18;16.90;1.00
76838;DHT22;65797;47.352;8.164;2023-06-10T03:41:44;16.90;1.00
76838;DHT22;65797;47.352;8.164;2023-06-10T03:44:10;16.90;1.00
76838;DHT22;65797;47.352;8.164;2023-06-10T03:46:36;16.90;1.00
76838;DHT22;65797;47.352;8.164;2023-06-10T03:49:01;16.90;1.00
76838;DHT22;65797;47.352;8.164;2023-06-10T03:51:29;17.00;1.00
76838;DHT22;65797;47.352;8.164;2023-06-10T03:53:55;17.00;1.00
76838;DHT22;65797;47.352;8.164;2023-06-10T03:56:21;17.00;1.00
76838;DHT22;65797;47.352;8.164;2023-06-10T03:58:47;17.00;1.00
76838;DHT22;65797;47.352;8.164;2023-06-10T04:01:12;17.00;1.00
76838;DHT22;65797;47.352;8.164;2023-06-10T04:03:43;17.10;1.00
76838;DHT22;65797;47.352;8.164;2023-06-10T04:06:09;17.10;1.00
76838;DHT22;65797;47.352;8.164;2023-06-10T04:08:35;17.10;1.00
76838;DHT22;65797;47.352;8.164;2023-06-10T04:11:01;17.10;1.00
76838;DHT22;65797;47.352;8.164;2023-06-10T04:13:27;17.10;1.00
76838;DHT22;65797;47.352;8.164;2023-06-10T04:15:53;17.20;1.00
76838;DHT22;65797;47.352;8.164;2023-06-10T04:18:20;17.30;1.00
76838;DHT22;65797;47.352;8.164;2023-06-10T04:20:47;17.50;1.00
76838;DHT22;65797;47.352;8.164;2023-06-10T04:23:12;17.60;1.00
76838;DHT22;65797;47.352;8.164;2023-06-10T04:25:38;17.70;1.00
76838;DHT22;65797;47.352;8.164;2023-06-10T04:28:04;17.80;1.00
76838;DHT22;65797;47.352;8.164;2023-06-10T04:30:30;18.00;1.00
76838;DHT22;65797;47.352;8.164;2023-06-10T04:32:57;18.10;1.00
76838;DHT22;65797;47.352;8.164;2023-06-10T04:35:22;18.30;1.00
76838;DHT22;65797;47.352;8.164;2023-06-10T04:37:48;18.40;1.00
76838;DHT22;65797;47.352;8.164;2023-06-10T04:40:14;18.50;99.90
76838;DHT22;65797;47.352;8.164;2023-06-10T04:42:41;18.70;99.90
76838;DHT22;65797;47.352;8.164;2023-06-10T04:45:07;18.80;99.90
76838;DHT22;65797;47.352;8.164;2023-06-10T04:47:33;18.90;99.90
76838;DHT22;65797;47.352;8.164;2023-06-10T04:50:03;19.10;99.90
76838;DHT22;65797;47.352;8.164;2023-06-10T04:52:30;19.30;99.90
76838;DHT22;65797;47.352;8.164;2023-06-10T04:54:57;19.30;99.90
76838;DHT22;65797;47.352;8.164;2023-06-10T04:57:23;19.20;99.90
76838;DHT22;65797;47.352;8.164;2023-06-10T04:59:49;19.20;99.90
76838;DHT22;65797;47.352;8.164;2023-06-10T05:02:15;19.20;99.90
76838;DHT22;65797;47.352;8.164;2023-06-10T05:04:41;19.20;99.90
76838;DHT22;65797;47.352;8.164;2023-06-10T05:07:06;19.20;99.90
76838;DHT22;65797;47.352;8.164;2023-06-10T05:09:32;19.50;99.90
76838;DHT22;65797;47.352;8.164;2023-06-10T05:11:58;19.70;99.90
76838;DHT22;65797;47.352;8.164;2023-06-10T05:14:24;19.80;99.90
76838;DHT22;65797;47.352;8.164;2023-06-10T05:16:50;20.00;99.90
76838;DHT22;65797;47.352;8.164;2023-06-10T05:19:15;20.20;99.90
76838;DHT22;65797;47.352;8.164;2023-06-10T05:21:44;20.20;99.90
76838;DHT22;65797;47.352;8.164;2023-06-10T05:24:11;20.00;99.90
76838;DHT22;65797;47.352;8.164;2023-06-10T05:26:37;19.90;99.90
76838;DHT22;65797;47.352;8.164;2023-06-10T05:29:04;19.90;99.90
76838;DHT22;65797;47.352;8.164;2023-06-10T05:31:30;20.20;99.90
76838;DHT22;65797;47.352;8.164;2023-06-10T05:33:56;20.30;99.90
76838;DHT22;65797;47.352;8.164;2023-06-10T05:36:22;20.60;99.90
76838;DHT22;65797;47.352;8.164;2023-06-10T05:38:50;20.80;99.90
76838;DHT22;65797;47.352;8.164;2023-06-10T05:41:16;21.20;99.90
76838;DHT22;65797;47.352;8.164;2023-06-10T05:43:42;21.20;99.90
76838;DHT22;65797;47.352;8.164;2023-06-10T05:46:07;21.50;99.90
76838;DHT22;65797;47.352;8.164;2023-06-10T05:48:33;21.60;99.90
76838;DHT22;65797;47.352;8.164;2023-06-10T05:50:59;21.80;99.90
76838;DHT22;65797;47.352;8.164;2023-06-10T05:53:25;22.10;97.00
76838;DHT22;65797;47.352;8.164;2023-06-10T05:55:50;22.40;96.40
76838;DHT22;65797;47.352;8.164;2023-06-10T05:58:17;22.50;67.40
76838;DHT22;65797;47.352;8.164;2023-06-10T06:00:43;22.30;59.00
76838;DHT22;65797;47.352;8.164;2023-06-10T06:03:09;22.20;55.50
76838;DHT22;65797;47.352;8.164;2023-06-10T06:05:36;22.50;58.70
76838;DHT22;65797;47.352;8.164;2023-06-10T06:08:06;22.30;39.90
76838;DHT22;65797;47.352;8.164;2023-06-10T06:10:33;22.10;40.60
76838;DHT22;65797;47.352;8.164;2023-06-10T06:12:59;22.00;35.20
76838;DHT22;65797;47.352;8.164;2023-06-10T06:15:25;22.00;39.90
76838;DHT22;65797;47.352;8.164;2023-06-10T06:17:51;22.50;37.90
76838;DHT22;65797;47.352;8.164;2023-06-10T06:20:19;22.90;43.10
76838;DHT22;65797;47.352;8.164;2023-06-10T06:22:45;23.20;29.90
76838;DHT22;65797;47.352;8.164;2023-06-10T06:25:10;23.50;26.50
76838;DHT22;65797;47.352;8.164;2023-06-10T06:27:36;23.70;25.80
76838;DHT22;65797;47.352;8.164;2023-06-10T06:30:02;24.00;24.30
76838;DHT22;65797;47.352;8.164;2023-06-10T06:32:28;24.10;20.30
76838;DHT22;65797;47.352;8.164;2023-06-10T06:34:54;24.20;21.10
76838;DHT22;65797;47.352;8.164;2023-06-10T06:37:24;24.40;20.00
76838;DHT22;65797;47.352;8.164;2023-06-10T06:39:51;24.60;18.30
76838;DHT22;65797;47.352;8.164;2023-06-10T06:42:17;24.60;14.70
76838;DHT22;65797;47.352;8.164;2023-06-10T06:44:43;24.60;15.10
76838;DHT22;65797;47.352;8.164;2023-06-10T06:47:09;24.70;14.00
76838;DHT22;65797;47.352;8.164;2023-06-10T06:49:37;24.90;15.00
76838;DHT22;65797;47.352;8.164;2023-06-10T06:52:06;24.90;11.10
76838;DHT22;65797;47.352;8.164;2023-06-10T06:54:32;25.00;10.30
76838;DHT22;65797;47.352;8.164;2023-06-10T06:56:58;25.20;9.50
76838;DHT22;65797;47.352;8.164;2023-06-10T06:59:23;25.20;9.50
76838;DHT22;65797;47.352;8.164;2023-06-10T07:01:51;25.30;8.50
76838;DHT22;65797;47.352;8.164;2023-06-10T07:04:17;25.60;11.20
76838;DHT22;65797;47.352;8.164;2023-06-10T07:06:42;25.80;11.70
76838;DHT22;65797;47.352;8.164;2023-06-10T07:09:08;25.90;7.20
76838;DHT22;65797;47.352;8.164;2023-06-10T07:11:34;25.60;4.90
76838;DHT22;65797;47.352;8.164;2023-06-10T07:14:00;25.80;5.60
76838;DHT22;65797;47.352;8.164;2023-06-10T07:16:26;25.50;6.00
76838;DHT22;65797;47.352;8.164;2023-06-10T07:18:52;24.80;3.50
76838;DHT22;65797;47.352;8.164;2023-06-10T07:21:19;25.30;5.30
76838;DHT22;65797;47.352;8.164;2023-06-10T07:23:45;25.80;6.20
76838;DHT22;65797;47.352;8.164;2023-06-10T07:26:11;26.10;8.00
76838;DHT22;65797;47.352;8.164;2023-06-10T07:28:40;26.10;7.80
76838;DHT22;65797;47.352;8.164;2023-06-10T07:31:06;25.60;3.90
76838;DHT22;65797;47.352;8.164;2023-06-10T07:33:32;25.70;6.50
76838;DHT22;65797;47.352;8.164;2023-06-10T07:35:58;26.20;8.20
76838;DHT22;65797;47.352;8.164;2023-06-10T07:38:25;26.10;5.10
76838;DHT22;65797;47.352;8.164;2023-06-10T07:40:51;25.90;4.10
76838;DHT22;65797;47.352;8.164;2023-06-10T07:43:16;25.80;3.10
76838;DHT22;65797;47.352;8.164;2023-06-10T07:45:43;25.90;4.90
76838;DHT22;65797;47.352;8.164;2023-06-10T07:48:09;26.00;5.20
76838;DHT22;65797;47.352;8.164;2023-06-10T07:50:35;26.30;6.80
76838;DHT22;65797;47.352;8.164;2023-06-10T07:53:01;26.60;7.80
76838;DHT22;65797;47.352;8.164;2023-06-10T07:55:26;26.00;5.10
76838;DHT22;65797;47.352;8.164;2023-06-10T07:57:53;25.80;2.00
76838;DHT22;65797;47.352;8.164;2023-06-10T08:00:22;25.90;3.30
76838;DHT22;65797;47.352;8.164;2023-06-10T08:02:48;26.20;4.20
76838;DHT22;65797;47.352;8.164;2023-06-10T08:05:14;26.20;5.30
76838;DHT22;65797;47.352;8.164;2023-06-10T08:07:40;26.40;4.80
76838;DHT22;65797;47.352;8.164;2023-06-10T08:10:06;26.60;7.20
76838;DHT22;65797;47.352;8.164;2023-06-10T08:12:32;26.50;5.10
76838;DHT22;65797;47.352;8.164;2023-06-10T08:14:59;26.50;4.30
76838;DHT22;65797;47.352;8.164;2023-06-10T08:17:24;26.30;2.70
76838;DHT22;65797;47.352;8.164;2023-06-10T08:19:50;26.70;6.10
76838;DHT22;65797;47.352;8.164;2023-06-10T08:22:16;27.20;8.50
76838;DHT22;65797;47.352;8.164;2023-06-10T08:24:42;27.20;8.70
76838;DHT22;65797;47.352;8.164;2023-06-10T08:27:26;27.60;10.00
76838;DHT22;65797;47.352;8.164;2023-06-10T08:29:51;27.70;9.20
76838;DHT22;65797;47.352;8.164;2023-06-10T08:32:17;27.50;7.10
76838;DHT22;65797;47.352;8.164;2023-06-10T08:34:57;27.50;7.80
76838;DHT22;65797;47.352;8.164;2023-06-10T08:37:24;27.60;15.20
76838;DHT22;65797;47.352;8.164;2023-06-10T08:39:50;28.10;8.90
76838;DHT22;65797;47.352;8.164;2023-06-10T08:42:22;27.80;6.00
76838;DHT22;65797;47.352;8.164;2023-06-10T08:44:57;28.10;6.80
76838;DHT22;65797;47.352;8.164;2023-06-10T08:47:25;28.30;7.70
76838;DHT22;65797;47.352;8.164;2023-06-10T08:49:57;27.80;4.70
76838;DHT22;65797;47.352;8.164;2023-06-10T08:52:52;27.30;2.90
76838;DHT22;65797;47.352;8.164;2023-06-10T08:55:29;27.30;1.40
76838;DHT22;65797;47.352;8.164;2023-06-10T08:57:56;27.10;1.00
76838;DHT22;65797;47.352;8.164;2023-06-10T09:00:31;26.60;1.00
76838;DHT22;65797;47.352;8.164;2023-06-10T09:03:03;27.20;1.00
76838;DHT22;65797;47.352;8.164;2023-06-10T09:05:38;27.50;2.10
76838;DHT22;65797;47.352;8.164;2023-06-10T09:08:21;27.70;1.60
76838;DHT22;65797;47.352;8.164;2023-06-10T09:10:47;28.10;3.00
76838;DHT22;65797;47.352;8.164;2023-06-10T09:13:13;28.10;5.50
76838;DHT22;65797;47.352;8.164;2023-06-10T09:15:43;28.60;6.40
76838;DHT22;65797;47.352;8.164;2023-06-10T09:18:11;28.60;7.70
76838;DHT22;65797;47.352;8.164;2023-06-10T09:20:38;28.60;7.60
76838;DHT22;65797;47.352;8.164;2023-06-10T09:23:05;28.20;4.50
76838;DHT22;65797;47.352;8.164;2023-06-10T09:25:38;28.30;4.80
76838;DHT22;65797;47.352;8.164;2023-06-10T09:28:06;28.60;4.90
76838;DHT22;65797;47.352;8.164;2023-06-10T09:30:37;29.10;9.30
76838;DHT22;65797;47.352;8.164;2023-06-10T09:33:12;28.80;5.70
76838;DHT22;65797;47.352;8.164;2023-06-10T09:35:48;28.80;1.60
76838;DHT22;65797;47.352;8.164;2023-06-10T09:38:22;28.70;1.00
76838;DHT22;65797;47.352;8.164;2023-06-10T09:40:52;28.60;1.00
76838;DHT22;65797;47.352;8.164;2023-06-10T09:43:18;28.70;1.50
76838;DHT22;65797;47.352;8.164;2023-06-10T09:45:44;28.90;2.80
76838;DHT22;65797;47.352;8.164;2023-06-10T09:48:12;29.00;4.20
76838;DHT22;65797;47.352;8.164;2023-06-10T09:50:48;28.90;3.30
76838;DHT22;65797;47.352;8.164;2023-06-10T09:53:14;29.20;1.40
76838;DHT22;65797;47.352;8.164;2023-06-10T09:55:46;29.40;4.30
76838;DHT22;65797;47.352;8.164;2023-06-10T09:58:12;29.70;7.40
76838;DHT22;65797;47.352;8.164;2023-06-10T10:00:37;30.00;6.30
76838;DHT22;65797;47.352;8.164;2023-06-10T10:03:03;29.30;5.10
76838;DHT22;65797;47.352;8.164;2023-06-10T10:05:29;29.10;3.00
76838;DHT22;65797;47.352;8.164;2023-06-10T10:07:55;29.40;2.10
76838;DHT22;65797;47.352;8.164;2023-06-10T10:10:22;29.50;1.80
76838;DHT22;65797;47.352;8.164;2023-06-10T10:12:50;29.80;3.60
76838;DHT22;65797;47.352;8.164;2023-06-10T10:15:17;29.40;1.00
76838;DHT22;65797;47.352;8.164;2023-06-10T10:18:11;29.80;1.00
76838;DHT22;65797;47.352;8.164;2023-06-10T10:20:51;29.80;4.50
76838;DHT22;65797;47.352;8.164;2023-06-10T10:26:44;29.80;2.40
76838;DHT22;65797;47.352;8.164;2023-06-10T10:29:38;29.80;2.80
76838;DHT22;65797;47.352;8.164;2023-06-10T10:32:06;29.50;1.00
76838;DHT22;65797;47.352;8.164;2023-06-10T10:37:43;29.60;1.00
76838;DHT22;65797;47.352;8.164;2023-06-10T10:40:10;29.80;1.70
76838;DHT22;65797;47.352;8.164;2023-06-10T10:42:38;30.50;4.40
76838;DHT22;65797;47.352;8.164;2023-06-10T10:45:05;30.10;1.00
76838;DHT22;65797;47.352;8.164;2023-06-10T10:48:26;30.20;1.00
76838;DHT22;65797;47.352;8.164;2023-06-10T10:50:30;30.10;1.00
76838;DHT22;65797;47.352;8.164;2023-06-10T10:52:59;30.00;1.00
76838;DHT22;65797;47.352;8.164;2023-06-10T10:55:26;30.00;1.00
76838;DHT22;65797;47.352;8.164;2023-06-10T11:00:44;30.30;2.00
76838;DHT22;65797;47.352;8.164;2023-06-10T11:03:16;30.10;1.00
76838;DHT22;65797;47.352;8.164;2023-06-10T11:05:44;29.30;1.00
76838;DHT22;65797;47.352;8.164;2023-06-10T11:08:13;29.30;1.00
76838;DHT22;65797;47.352;8.164;2023-06-10T11:10:41;29.30;1.00
76838;DHT22;65797;47.352;8.164;2023-06-10T11:13:21;29.60;1.00
76838;DHT22;65797;47.352;8.164;2023-06-10T11:15:49;30.20;1.00
76838;DHT22;65797;47.352;8.164;2023-06-10T11:23:44;30.40;1.00
76838;DHT22;65797;47.352;8.164;2023-06-10T11:36:25;30.50;1.00
76838;DHT22;65797;47.352;8.164;2023-06-10T11:39:00;30.90;1.00
76838;DHT22;65797;47.352;8.164;2023-06-10T12:09:25;30.50;1.00
76838;DHT22;65797;47.352;8.164;2023-06-10T12:17:17;30.40;1.00
76838;DHT22;65797;47.352;8.164;2023-06-10T12:19:42;30.70;1.00
76838;DHT22;65797;47.352;8.164;2023-06-10T12:22:08;30.40;1.00
76838;DHT22;65797;47.352;8.164;2023-06-10T12:24:58;30.60;1.00
76838;DHT22;65797;47.352;8.164;2023-06-10T12:27:29;30.80;1.00
76838;DHT22;65797;47.352;8.164;2023-06-10T12:29:55;30.80;1.00
76838;DHT22;65797;47.352;8.164;2023-06-10T12:32:22;30.50;1.00
76838;DHT22;65797;47.352;8.164;2023-06-10T12:35:03;30.70;1.00
76838;DHT22;65797;47.352;8.164;2023-06-10T12:37:32;30.90;1.00
76838;DHT22;65797;47.352;8.164;2023-06-10T12:40:02;30.90;1.00
76838;DHT22;65797;47.352;8.164;2023-06-10T12:42:29;31.10;1.00
76838;DHT22;65797;47.352;8.164;2023-06-10T12:44:56;31.50;1.00
76838;DHT22;65797;47.352;8.164;2023-06-10T12:47:35;31.50;1.00
76838;DHT22;65797;47.352;8.164;2023-06-10T12:50:03;31.30;1.00
76838;DHT22;65797;47.352;8.164;2023-06-10T12:52:29;31.20;1.00
76838;DHT22;65797;47.352;8.164;2023-06-10T12:54:55;31.20;1.00
76838;DHT22;65797;47.352;8.164;2023-06-10T12:57:22;31.50;1.00
76838;DHT22;65797;47.352;8.164;2023-06-10T12:59:48;31.70;1.00
76838;DHT22;65797;47.352;8.164;2023-06-10T13:02:26;31.00;1.00
76838;DHT22;65797;47.352;8.164;2023-06-10T13:04:51;29.90;1.00
76838;DHT22;65797;47.352;8.164;2023-06-10T13:07:17;30.10;1.00
76838;DHT22;65797;47.352;8.164;2023-06-10T13:09:43;30.50;1.00
76838;DHT22;65797;47.352;8.164;2023-06-10T13:12:10;30.50;1.00
76838;DHT22;65797;47.352;8.164;2023-06-10T13:14:36;31.10;1.00
76838;DHT22;65797;47.352;8.164;2023-06-10T13:17:04;31.30;1.00
76838;DHT22;65797;47.352;8.164;2023-06-10T13:19:32;31.30;1.00
76838;DHT22;65797;47.352;8.164;2023-06-10T13:21:58;31.00;1.00
76838;DHT22;65797;47.352;8.164;2023-06-10T13:24:24;31.00;1.00
76838;DHT22;65797;47.352;8.164;2023-06-10T13:26:50;31.30;1.00
76838;DHT22;65797;47.352;8.164;2023-06-10T13:29:16;31.40;1.00
76838;DHT22;65797;47.352;8.164;2023-06-10T13:31:41;31.70;1.00
76838;DHT22;65797;47.352;8.164;2023-06-10T13:34:07;31.50;1.00
76838;DHT22;65797;47.352;8.164;2023-06-10T13:36:33;31.40;1.00
76838;DHT22;65797;47.352;8.164;2023-06-10T13:38:59;31.20;1.00
76838;DHT22;65797;47.352;8.164;2023-06-10T13:41:25;31.40;1.00
76838;DHT22;65797;47.352;8.164;2023-06-10T13:43:54;31.40;1.00
76838;DHT22;65797;47.352;8.164;2023-06-10T13:46:20;31.60;1.00
76838;DHT22;65797;47.352;8.164;2023-06-10T13:48:47;31.30;1.00
76838;DHT22;65797;47.352;8.164;2023-06-10T13:51:13;30.60;1.00
76838;DHT22;65797;47.352;8.164;2023-06-10T13:53:38;31.30;1.00
76838;DHT22;65797;47.352;8.164;2023-06-10T13:56:04;30.60;1.00
76838;DHT22;65797;47.352;8.164;2023-06-10T13:58:31;30.70;1.00
76838;DHT22;65797;47.352;8.164;2023-06-10T14:00:57;30.80;1.00
76838;DHT22;65797;47.352;8.164;2023-06-10T14:03:24;31.30;1.00
76838;DHT22;65797;47.352;8.164;2023-06-10T17:58:36;27.10;1.00
76838;DHT22;65797;47.352;8.164;2023-06-10T18:01:02;26.90;1.00
76838;DHT22;65797;47.352;8.164;2023-06-10T18:03:27;26.90;1.00
76838;DHT22;65797;47.352;8.164;2023-06-10T18:05:54;26.80;1.00
76838;DHT22;65797;47.352;8.164;2023-06-10T18:08:20;26.80;1.00
76838;DHT22;65797;47.352;8.164;2023-06-10T18:10:46;26.70;1.00
76838;DHT22;65797;47.352;8.164;2023-06-10T18:13:12;26.60;1.00
76838;DHT22;65797;47.352;8.164;2023-06-10T18:15:37;26.50;1.00
76838;DHT22;65797;47.352;8.164;2023-06-10T18:18:03;26.40;1.00
76838;DHT22;65797;47.352;8.164;2023-06-10T18:20:29;26.30;1.00
76838;DHT22;65797;47.352;8.164;2023-06-10T18:22:55;26.20;1.00
76838;DHT22;65797;47.352;8.164;2023-06-10T18:25:21;26.10;1.00
76838;DHT22;65797;47.352;8.164;2023-06-10T18:27:46;25.90;1.00
76838;DHT22;65797;47.352;8.164;2023-06-10T18:30:12;25.70;1.00
76838;DHT22;65797;47.352;8.164;2023-06-10T18:32:39;25.50;1.00
76838;DHT22;65797;47.352;8.164;2023-06-10T18:35:05;25.40;1.00
76838;DHT22;65797;47.352;8.164;2023-06-10T18:37:30;25.30;1.00
76838;DHT22;65797;47.352;8.164;2023-06-10T18:39:56;25.30;1.00
76838;DHT22;65797;47.352;8.164;2023-06-10T18:42:22;25.20;1.00
76838;DHT22;65797;47.352;8.164;2023-06-10T18:44:47;25.10;1.00
76838;DHT22;65797;47.352;8.164;2023-06-10T18:47:13;25.00;1.00
76838;DHT22;65797;47.352;8.164;2023-06-10T18:49:38;24.90;1.00
76838;DHT22;65797;47.352;8.164;2023-06-10T18:52:05;24.80;1.00
76838;DHT22;65797;47.352;8.164;2023-06-10T18:54:33;24.70;1.00
76838;DHT22;65797;47.352;8.164;2023-06-10T18:56:59;24.60;1.00
76838;DHT22;65797;47.352;8.164;2023-06-10T18:59:25;24.50;1.00
76838;DHT22;65797;47.352;8.164;2023-06-10T19:01:50;24.40;1.00
76838;DHT22;65797;47.352;8.164;2023-06-10T19:04:16;24.20;1.00
76838;DHT22;65797;47.352;8.164;2023-06-10T19:06:42;24.10;1.00
76838;DHT22;65797;47.352;8.164;2023-06-10T19:09:07;24.00;1.00
76838;DHT22;65797;47.352;8.164;2023-06-10T19:11:33;24.00;1.00
76838;DHT22;65797;47.352;8.164;2023-06-10T19:13:59;23.70;1.00
76838;DHT22;65797;47.352;8.164;2023-06-10T19:16:26;23.60;1.00
76838;DHT22;65797;47.352;8.164;2023-06-10T19:18:51;23.60;1.00
76838;DHT22;65797;47.352;8.164;2023-06-10T19:21:17;23.60;1.00
76838;DHT22;65797;47.352;8.164;2023-06-10T19:23:43;23.60;1.00
76838;DHT22;65797;47.352;8.164;2023-06-10T19:26:09;23.50;1.00
76838;DHT22;65797;47.352;8.164;2023-06-10T19:28:34;23.30;1.00
76838;DHT22;65797;47.352;8.164;2023-06-10T19:31:00;23.20;1.00
76838;DHT22;65797;47.352;8.164;2023-06-10T19:33:26;23.20;1.00
76838;DHT22;65797;47.352;8.164;2023-06-10T19:35:52;23.20;1.00
76838;DHT22;65797;47.352;8.164;2023-06-10T19:38:18;23.00;1.00
76838;DHT22;65797;47.352;8.164;2023-06-10T19:40:44;23.00;1.00
76838;DHT22;65797;47.352;8.164;2023-06-10T19:43:10;23.00;1.00
76838;DHT22;65797;47.352;8.164;2023-06-10T19:45:44;22.90;1.00
76838;DHT22;65797;47.352;8.164;2023-06-10T19:48:19;22.70;1.00
76838;DHT22;65797;47.352;8.164;2023-06-10T19:50:45;22.60;1.00
76838;DHT22;65797;47.352;8.164;2023-06-10T19:53:16;22.50;1.00
76838;DHT22;65797;47.352;8.164;2023-06-10T19:55:43;22.50;1.00
76838;DHT22;65797;47.352;8.164;2023-06-10T19:58:11;22.40;1.00
76838;DHT22;65797;47.352;8.164;2023-06-10T20:00:37;22.40;1.00
76838;DHT22;65797;47.352;8.164;2023-06-10T20:03:03;22.30;1.00
76838;DHT22;65797;47.352;8.164;2023-06-10T20:05:36;22.10;1.00
76838;DHT22;65797;47.352;8.164;2023-06-10T20:08:04;22.10;1.00
76838;DHT22;65797;47.352;8.164;2023-06-10T20:10:30;21.90;1.00
76838;DHT22;65797;47.352;8.164;2023-06-10T20:12:56;22.00;1.00
76838;DHT22;65797;47.352;8.164;2023-06-10T20:15:26;21.90;1.00
76838;DHT22;65797;47.352;8.164;2023-06-10T20:17:52;21.80;1.00
76838;DHT22;65797;47.352;8.164;2023-06-10T20:20:18;21.80;1.00
76838;DHT22;65797;47.352;8.164;2023-06-10T20:22:50;21.80;1.00
76838;DHT22;65797;47.352;8.164;2023-06-10T20:25:16;21.70;1.00
76838;DHT22;65797;47.352;8.164;2023-06-10T20:27:42;21.70;1.00
76838;DHT22;65797;47.352;8.164;2023-06-10T20:30:08;21.60;1.00
76838;DHT22;65797;47.352;8.164;2023-06-10T20:32:34;21.50;1.00
76838;DHT22;65797;47.352;8.164;2023-06-10T20:35:00;21.50;1.00
76838;DHT22;65797;47.352;8.164;2023-06-10T20:37:26;21.40;1.00
76838;DHT22;65797;47.352;8.164;2023-06-10T20:39:52;21.40;1.00